Time;durP1;ratioP1;P1;durP2;ratioP2;P2;SDS_P1;SDS_P2;PMS_P1;PMS_P2;Temp;Humidity;BMP_temperature;BMP_pressure;BME280_temperature;BME280_humidity;BME280_pressure;Samples;Min_cycle;Max_cycle;Signal;HPM_P1;HPM_P2
2022/07/20 00:00:24;;;;;;;7.03;1.92;;;30.80;40.00;;;;;;5035250;28;20068;-76
2022/07/20 00:02:50;;;;;;;4.88;2.22;;;30.70;39.80;;;;;;5035565;28;20512;-76
2022/07/20 00:05:15;;;;;;;7.28;2.08;;;30.70;40.00;;;;;;5035091;28;20026;-76
2022/07/20 00:07:41;;;;;;;5.35;2.08;;;30.70;40.10;;;;;;5035031;28;20062;-76
2022/07/20 00:12:51;;;;;;;6.85;2.50;;;30.60;40.60;;;;;;5035108;28;20060;-76
2022/07/20 00:15:17;;;;;;;5.22;2.35;;;30.50;40.10;;;;;;5035219;28;20477;-76
2022/07/20 00:17:42;;;;;;;3.75;2.08;;;30.60;40.20;;;;;;5034513;28;20041;-76
2022/07/20 00:20:10;;;;;;;5.35;2.22;;;30.60;40.20;;;;;;5035045;28;20350;-76
2022/07/20 00:22:36;;;;;;;6.07;2.00;;;30.60;40.20;;;;;;5035050;28;20438;-76
2022/07/20 00:25:02;;;;;;;4.50;2.30;;;30.60;40.00;;;;;;5035182;28;20112;-76
2022/07/20 00:27:27;;;;;;;5.38;2.28;;;30.50;40.00;;;;;;5034728;28;20028;-76
2022/07/20 00:29:53;;;;;;;5.78;1.92;;;30.50;40.10;;;;;;5034678;28;20029;-76
2022/07/20 00:32:19;;;;;;;3.47;2.33;;;30.50;40.10;;;;;;5034538;28;20021;-76
2022/07/20 00:34:44;;;;;;;6.65;2.30;;;30.50;40.20;;;;;;5034782;28;20033;-76
2022/07/20 00:37:10;;;;;;;5.65;2.42;;;30.40;40.40;;;;;;5034275;28;20029;-76
2022/07/20 00:39:35;;;;;;;5.38;1.95;;;30.30;40.40;;;;;;5034617;28;20116;-76
2022/07/20 00:42:01;;;;;;;4.13;2.25;;;30.20;40.40;;;;;;5034748;28;20427;-76
2022/07/20 00:44:27;;;;;;;5.82;2.17;;;30.20;40.50;;;;;;5033073;28;20076;-76
2022/07/20 00:46:54;;;;;;;4.90;2.47;;;30.10;40.50;;;;;;5034069;28;20048;-76
2022/07/20 00:49:19;;;;;;;5.82;1.98;;;30.10;40.40;;;;;;5034578;28;20030;-76
2022/07/20 00:51:45;;;;;;;6.38;2.53;;;30.00;40.50;;;;;;5034481;28;20404;-76
2022/07/20 00:54:11;;;;;;;5.88;2.15;;;30.00;40.40;;;;;;5034386;28;20017;-76
2022/07/20 00:56:38;;;;;;;6.45;2.33;;;29.90;40.60;;;;;;5034116;28;20044;-76
2022/07/20 00:59:06;;;;;;;5.10;2.10;;;29.90;40.80;;;;;;5034141;28;20028;-76
2022/07/20 01:01:32;;;;;;;4.95;2.20;;;30.00;40.80;;;;;;5034025;28;20022;-76
2022/07/20 01:03:58;;;;;;;3.78;2.28;;;29.90;40.80;;;;;;5034029;28;20029;-76
2022/07/20 01:06:24;;;;;;;4.28;2.10;;;29.90;41.00;;;;;;5034267;28;20080;-76
2022/07/20 01:08:50;;;;;;;3.67;2.15;;;29.90;41.10;;;;;;5033995;28;20465;-76
2022/07/20 01:11:17;;;;;;;5.68;2.30;;;29.90;41.00;;;;;;5034230;28;20115;-76
2022/07/20 01:13:42;;;;;;;4.38;2.10;;;29.90;40.80;;;;;;5033827;28;20556;-76
2022/07/20 01:16:08;;;;;;;5.18;2.10;;;29.90;41.00;;;;;;5033580;28;20116;-76
2022/07/20 01:18:34;;;;;;;6.22;2.10;;;29.80;40.80;;;;;;5034025;28;20108;-76
2022/07/20 01:21:07;;;;;;;6.13;2.28;;;29.80;40.90;;;;;;5033725;28;20079;-76
2022/07/20 01:23:33;;;;;;;5.60;2.38;;;29.80;41.00;;;;;;5034038;28;20052;-76
2022/07/20 01:25:59;;;;;;;5.72;2.17;;;29.80;41.20;;;;;;5033786;28;20105;-76
2022/07/20 01:28:28;;;;;;;4.22;2.15;;;29.70;40.90;;;;;;5032982;28;20444;-76
2022/07/20 01:30:54;;;;;;;5.03;2.20;;;29.70;41.20;;;;;;5033790;28;20033;-76
2022/07/20 01:33:21;;;;;;;5.82;2.00;;;29.70;41.30;;;;;;5033721;28;20025;-76
2022/07/20 01:35:46;;;;;;;4.63;2.33;;;29.70;41.40;;;;;;5033512;28;20518;-76
2022/07/20 01:38:12;;;;;;;6.35;2.13;;;29.70;41.40;;;;;;5033621;28;20045;-76
2022/07/20 01:40:38;;;;;;;9.63;2.13;;;29.80;41.50;;;;;;5033544;28;20022;-76
2022/07/20 01:43:03;;;;;;;4.63;1.98;;;29.70;41.30;;;;;;5032019;28;20377;-76
2022/07/20 01:45:29;;;;;;;6.57;2.20;;;29.70;41.30;;;;;;5033419;28;20368;-76
2022/07/20 01:47:55;;;;;;;5.45;2.30;;;29.60;41.30;;;;;;5033599;28;20028;-76
2022/07/20 01:50:21;;;;;;;6.07;2.17;;;29.60;41.40;;;;;;5033575;28;20025;-76
2022/07/20 01:52:46;;;;;;;4.22;1.95;;;29.60;41.70;;;;;;5033266;28;20033;-76
2022/07/20 01:55:12;;;;;;;4.32;1.98;;;29.60;41.80;;;;;;5033570;28;20025;-76
2022/07/20 01:57:38;;;;;;;6.03;2.47;;;29.70;41.80;;;;;;5033393;28;20060;-76
2022/07/20 02:00:06;;;;;;;5.97;2.10;;;29.60;41.30;;;;;;5033268;28;20486;-76
2022/07/20 02:02:32;;;;;;;6.25;1.83;;;29.60;41.40;;;;;;5033380;28;20033;-76
2022/07/20 02:04:57;;;;;;;2.75;1.92;;;29.60;41.40;;;;;;5033164;28;20440;-76
2022/07/20 02:07:23;;;;;;;6.55;2.33;;;29.60;41.30;;;;;;5033112;28;20030;-76
2022/07/20 02:09:49;;;;;;;6.00;1.98;;;29.60;41.40;;;;;;5033392;28;20056;-76
2022/07/20 02:12:14;;;;;;;4.78;1.92;;;29.60;41.60;;;;;;5033067;28;20020;-76
2022/07/20 02:14:40;;;;;;;3.65;1.90;;;29.60;41.70;;;;;;5033314;28;20095;-76
2022/07/20 02:17:05;;;;;;;5.40;2.35;;;29.60;41.70;;;;;;5033284;28;20041;-76
2022/07/20 02:19:31;;;;;;;3.78;2.25;;;29.60;41.70;;;;;;5032745;28;20017;-76
2022/07/20 02:21:56;;;;;;;7.80;2.30;;;29.60;41.90;;;;;;5033124;28;20030;-76
2022/07/20 02:24:22;;;;;;;3.15;1.80;;;29.50;42.60;;;;;;5033245;28;20453;-76
2022/07/20 02:26:47;;;;;;;5.57;2.35;;;29.60;42.20;;;;;;5032997;28;20083;-76
2022/07/20 02:29:13;;;;;;;3.63;1.70;;;29.50;42.20;;;;;;5033120;28;20029;-76
2022/07/20 02:31:39;;;;;;;5.00;1.85;;;29.50;42.30;;;;;;5032944;28;20543;-76
2022/07/20 02:34:04;;;;;;;4.72;2.15;;;29.50;42.30;;;;;;5032839;28;20017;-76
2022/07/20 02:36:30;;;;;;;4.35;2.05;;;29.50;42.60;;;;;;5032858;28;20526;-76
2022/07/20 02:38:56;;;;;;;7.28;2.83;;;29.40;42.60;;;;;;5033118;28;20033;-76
2022/07/20 02:41:21;;;;;;;8.13;2.33;;;29.40;42.30;;;;;;5034518;28;20100;-76
2022/07/20 02:43:47;;;;;;;4.40;1.90;;;29.30;42.60;;;;;;5035213;28;20567;-76
2022/07/20 02:46:13;;;;;;;5.03;2.20;;;29.30;43.00;;;;;;5036646;28;20026;-76
2022/07/20 02:48:39;;;;;;;5.15;2.17;;;29.40;43.20;;;;;;5036658;28;20040;-76
2022/07/20 02:51:04;;;;;;;4.32;2.53;;;29.40;43.10;;;;;;5036502;28;20032;-76
2022/07/20 02:53:30;;;;;;;3.13;1.90;;;29.30;42.80;;;;;;5036553;28;20022;-76
2022/07/20 02:55:55;;;;;;;3.80;2.03;;;29.30;43.00;;;;;;5036503;28;20025;-76
2022/07/20 02:58:21;;;;;;;9.45;2.40;;;29.30;43.10;;;;;;5036390;28;20057;-76
2022/07/20 03:00:47;;;;;;;5.72;2.00;;;29.30;42.90;;;;;;5036585;28;20021;-76
2022/07/20 03:03:12;;;;;;;2.65;1.95;;;29.30;43.10;;;;;;5036363;28;20025;-76
2022/07/20 03:05:38;;;;;;;4.45;1.67;;;29.30;43.20;;;;;;5036302;28;20065;-76
2022/07/20 03:08:06;;;;;;;4.25;2.25;;;29.30;43.30;;;;;;5036488;28;20045;-76
2022/07/20 03:10:31;;;;;;;4.35;2.40;;;29.30;43.20;;;;;;5035979;28;20030;-76
2022/07/20 03:12:57;;;;;;;5.65;2.13;;;29.20;43.00;;;;;;5036403;28;20100;-76
2022/07/20 03:15:22;;;;;;;3.28;2.00;;;29.20;43.20;;;;;;5036257;28;20028;-76
2022/07/20 03:17:51;;;;;;;6.78;2.65;;;29.20;43.30;;;;;;5035940;28;20038;-76
2022/07/20 03:20:23;;;;;;;4.45;2.00;;;29.20;43.60;;;;;;5036139;28;20099;-76
2022/07/20 03:22:49;;;;;;;2.30;2.08;;;29.10;43.60;;;;;;5035655;28;20025;-76
2022/07/20 03:25:15;;;;;;;4.00;1.90;;;29.10;43.80;;;;;;5036123;28;20022;-76
2022/07/20 03:27:40;;;;;;;3.53;1.83;;;29.10;43.90;;;;;;5036187;28;20432;-76
2022/07/20 03:30:07;;;;;;;3.30;2.03;;;29.10;43.90;;;;;;5036047;28;20029;-76
2022/07/20 03:32:34;;;;;;;4.90;2.30;;;29.20;43.90;;;;;;5035756;28;20144;-76
2022/07/20 03:34:59;;;;;;;5.28;2.47;;;29.20;43.90;;;;;;5035872;28;20433;-76
2022/07/20 03:37:25;;;;;;;5.88;2.08;;;29.10;44.00;;;;;;5035659;28;20120;-76
2022/07/20 03:39:51;;;;;;;6.47;2.15;;;29.10;44.30;;;;;;5035568;28;20530;-76
2022/07/20 03:42:17;;;;;;;7.47;2.00;;;29.00;44.40;;;;;;5035813;28;20025;-76
2022/07/20 03:44:42;;;;;;;6.15;2.47;;;29.00;44.70;;;;;;5035508;28;20103;-76
2022/07/20 03:47:08;;;;;;;4.45;2.40;;;29.00;46.30;;;;;;5035852;28;20441;-76
2022/07/20 03:49:34;;;;;;;2.72;2.10;;;28.90;47.60;;;;;;5035406;28;20030;-76
2022/07/20 03:51:59;;;;;;;3.53;2.20;;;28.80;48.60;;;;;;5035139;28;20022;-76
2022/07/20 03:54:25;;;;;;;6.85;2.38;;;28.80;49.50;;;;;;5035638;28;20028;-76
2022/07/20 03:56:51;;;;;;;3.95;2.38;;;28.80;50.00;;;;;;5035537;28;20053;-76
2022/07/20 03:59:17;;;;;;;4.90;2.40;;;28.70;50.20;;;;;;5035568;28;20100;-76
2022/07/20 04:01:42;;;;;;;3.65;2.10;;;28.70;50.60;;;;;;5035544;28;20030;-76
2022/07/20 04:04:08;;;;;;;6.43;2.65;;;28.60;50.90;;;;;;5034990;28;20018;-76
2022/07/20 04:06:34;;;;;;;9.07;2.88;;;28.60;51.50;;;;;;5035114;28;20095;-76
2022/07/20 04:09:00;;;;;;;7.47;2.50;;;28.50;51.40;;;;;;5035281;28;20025;-76
2022/07/20 04:11:26;;;;;;;6.25;2.85;;;28.40;51.30;;;;;;5035176;28;20051;-76
2022/07/20 04:13:52;;;;;;;3.38;2.25;;;28.30;51.70;;;;;;5035090;28;20025;-75
2022/07/20 04:16:17;;;;;;;5.82;2.25;;;28.20;50.90;;;;;;5035082;28;20032;-75
2022/07/20 04:18:43;;;;;;;7.57;2.55;;;28.20;51.00;;;;;;5034833;28;20025;-76
2022/07/20 04:21:09;;;;;;;5.85;2.70;;;28.10;51.00;;;;;;5034893;28;20026;-76
2022/07/20 04:23:35;;;;;;;5.82;2.83;;;28.10;51.00;;;;;;5034628;28;20431;-76
2022/07/20 04:26:00;;;;;;;6.35;2.92;;;28.00;50.90;;;;;;5034686;28;20464;-76
2022/07/20 04:28:26;;;;;;;5.60;2.95;;;27.90;51.00;;;;;;5035002;28;20040;-76
2022/07/20 04:30:51;;;;;;;7.60;2.92;;;27.80;51.40;;;;;;5035025;28;20096;-76
2022/07/20 04:33:18;;;;;;;6.03;4.03;;;27.70;51.70;;;;;;5034695;28;20457;-76
2022/07/20 04:35:45;;;;;;;9.52;3.80;;;27.50;51.30;;;;;;5034371;28;20025;-76
2022/07/20 04:38:14;;;;;;;10.52;4.55;;;27.40;51.60;;;;;;5034588;28;20091;-76
2022/07/20 04:40:42;;;;;;;9.20;5.22;;;27.30;51.50;;;;;;5034779;28;20433;-76
2022/07/20 04:43:08;;;;;;;12.18;5.50;;;27.30;51.80;;;;;;5034179;28;20443;-76
2022/07/20 04:45:33;;;;;;;10.68;5.25;;;27.20;52.90;;;;;;5034532;28;20104;-76
2022/07/20 04:47:59;;;;;;;11.82;6.53;;;26.90;52.90;;;;;;5034398;28;20022;-76
2022/07/20 04:50:25;;;;;;;15.63;7.20;;;26.80;53.60;;;;;;5034309;28;20021;-76
2022/07/20 04:52:51;;;;;;;15.98;7.70;;;26.70;55.00;;;;;;5034192;28;20119;-76
2022/07/20 04:55:16;;;;;;;19.98;8.10;;;26.50;55.40;;;;;;5034185;28;20429;-76
2022/07/20 04:57:42;;;;;;;18.80;8.95;;;26.40;56.10;;;;;;5034357;28;20037;-76
2022/07/20 05:00:10;;;;;;;20.00;8.32;;;26.30;56.80;;;;;;5033793;28;20797;-76
2022/07/20 05:02:37;;;;;;;14.50;9.20;;;26.30;56.90;;;;;;5033975;28;20034;-76
2022/07/20 05:05:04;;;;;;;19.35;9.15;;;26.30;58.00;;;;;;5033144;28;20029;-76
2022/07/20 05:07:29;;;;;;;17.02;9.85;;;26.20;58.20;;;;;;5033907;28;20029;-76
2022/07/20 05:09:55;;;;;;;16.05;10.48;;;26.20;58.80;;;;;;5034093;28;20377;-76
2022/07/20 05:12:20;;;;;;;20.67;11.80;;;26.30;59.60;;;;;;5033919;28;20025;-76
2022/07/20 05:14:46;;;;;;;21.35;12.23;;;26.20;60.50;;;;;;5033845;28;20108;-76
2022/07/20 05:17:11;;;;;;;20.92;12.48;;;26.10;61.20;;;;;;5034046;28;20029;-76
2022/07/20 05:19:37;;;;;;;19.63;10.85;;;26.00;61.90;;;;;;5033736;28;20025;-76
2022/07/20 05:22:02;;;;;;;18.73;12.63;;;26.10;61.70;;;;;;5033948;28;20377;-76
2022/07/20 05:24:28;;;;;;;23.17;12.50;;;26.10;61.90;;;;;;5033516;28;20017;-76
2022/07/20 05:26:54;;;;;;;21.65;13.00;;;26.20;61.90;;;;;;5033804;28;20076;-76
2022/07/20 05:29:20;;;;;;;21.42;13.57;;;26.30;62.20;;;;;;5033738;28;20025;-76
2022/07/20 05:31:46;;;;;;;24.45;15.25;;;26.40;62.40;;;;;;5033487;28;20169;-76
2022/07/20 05:34:12;;;;;;;19.63;15.52;;;26.40;63.30;;;;;;5033768;28;20021;-76
2022/07/20 05:36:37;;;;;;;27.65;16.95;;;26.40;63.80;;;;;;5033558;28;20041;-76
2022/07/20 05:39:03;;;;;;;30.20;17.15;;;26.40;65.00;;;;;;5033421;28;20026;-76
2022/07/20 05:41:31;;;;;;;27.65;17.02;;;26.30;65.30;;;;;;5033461;28;20079;-75
2022/07/20 05:43:57;;;;;;;27.67;17.80;;;26.30;65.50;;;;;;5033330;28;20045;-76
2022/07/20 05:46:23;;;;;;;31.83;19.77;;;26.30;65.50;;;;;;5033046;28;20109;-76
2022/07/20 05:48:48;;;;;;;29.23;18.52;;;26.30;66.90;;;;;;5033208;28;20120;-76
2022/07/20 05:51:14;;;;;;;30.60;19.63;;;26.30;66.80;;;;;;5033040;28;20026;-76
2022/07/20 05:53:39;;;;;;;28.05;19.25;;;26.30;67.50;;;;;;5033331;28;20030;-76
2022/07/20 05:56:05;;;;;;;37.13;22.85;;;26.30;67.40;;;;;;5033181;28;20461;-76
2022/07/20 05:58:31;;;;;;;34.40;21.38;;;26.40;68.00;;;;;;5033351;28;20113;-76
2022/07/20 06:00:57;;;;;;;37.00;22.52;;;26.40;68.00;;;;;;5033142;28;20435;-76
2022/07/20 06:03:22;;;;;;;33.42;22.88;;;26.40;68.30;;;;;;5033362;28;20029;-76
2022/07/20 06:05:48;;;;;;;35.20;23.50;;;26.50;68.50;;;;;;5033029;28;20045;-76
2022/07/20 06:08:13;;;;;;;32.72;23.50;;;26.50;68.80;;;;;;5033244;28;20471;-76
2022/07/20 06:10:39;;;;;;;33.03;23.55;;;26.50;68.90;;;;;;5032969;28;20057;-76
2022/07/20 06:13:05;;;;;;;38.17;25.10;;;26.60;68.80;;;;;;5032975;28;20025;-76
2022/07/20 06:15:31;;;;;;;36.95;25.27;;;26.60;69.90;;;;;;5035225;28;20100;-76
2022/07/20 06:17:57;;;;;;;37.95;25.35;;;26.70;69.50;;;;;;5036884;28;20045;-76
2022/07/20 06:20:24;;;;;;;38.55;25.17;;;26.70;69.90;;;;;;5037005;28;20025;-76
2022/07/20 06:22:50;;;;;;;36.83;25.35;;;26.60;70.80;;;;;;5035878;28;20075;-77
2022/07/20 06:25:17;;;;;;;34.17;23.02;;;26.70;70.40;;;;;;5033691;28;20464;-76
2022/07/20 06:27:43;;;;;;;36.38;24.88;;;26.70;70.30;;;;;;5035124;28;20033;-76
2022/07/20 06:30:10;;;;;;;41.00;25.33;;;26.70;70.20;;;;;;5036247;28;20072;-76
2022/07/20 06:32:36;;;;;;;36.83;22.38;;;26.80;70.60;;;;;;5036114;28;20104;-76
2022/07/20 06:35:02;;;;;;;36.60;25.08;;;26.90;70.00;;;;;;5036675;28;20441;-77
2022/07/20 06:37:28;;;;;;;34.35;25.38;;;27.00;70.30;;;;;;5036906;28;20388;-77
2022/07/20 06:39:54;;;;;;;40.08;26.90;;;27.00;70.40;;;;;;5036290;28;20013;-75
2022/07/20 06:42:20;;;;;;;40.03;25.20;;;27.10;70.60;;;;;;5035880;28;20465;-78
2022/07/20 06:44:46;;;;;;;39.67;26.10;;;27.10;70.20;;;;;;5034522;28;20054;-77
2022/07/20 06:47:12;;;;;;;39.45;24.25;;;27.10;70.00;;;;;;5035251;28;20029;-77
2022/07/20 06:49:38;;;;;;;36.30;25.48;;;27.10;70.00;;;;;;5036243;28;20037;-77
2022/07/20 06:52:04;;;;;;;33.83;23.52;;;27.20;70.10;;;;;;5035368;28;20030;-76
2022/07/20 06:54:48;;;;;;;38.33;23.88;;;27.20;69.90;;;;;;5036022;28;20041;-77
2022/07/20 06:57:14;;;;;;;35.53;24.33;;;27.30;70.00;;;;;;5036432;28;20117;-76
2022/07/20 06:59:40;;;;;;;33.35;22.65;;;27.30;69.80;;;;;;5036186;28;20388;-76
2022/07/20 07:02:06;;;;;;;32.60;22.00;;;27.40;69.60;;;;;;5036287;28;20029;-76
2022/07/20 07:04:32;;;;;;;33.90;21.90;;;27.40;69.00;;;;;;5036203;28;20456;-76
2022/07/20 07:06:58;;;;;;;30.38;22.17;;;27.40;68.50;;;;;;5036178;28;20018;-76
2022/07/20 07:09:24;;;;;;;30.85;21.58;;;27.40;68.20;;;;;;5035308;28;20216;-76
2022/07/20 07:11:50;;;;;;;29.08;20.52;;;27.40;68.20;;;;;;5035943;28;20033;-76
2022/07/20 07:14:16;;;;;;;29.05;20.10;;;27.40;68.70;;;;;;5036290;28;20411;-76
2022/07/20 07:16:41;;;;;;;30.75;19.88;;;27.30;68.00;;;;;;5036320;28;20535;-76
2022/07/20 07:19:07;;;;;;;27.80;18.27;;;27.30;68.20;;;;;;5036285;28;20017;-76
2022/07/20 07:21:33;;;;;;;26.27;18.48;;;27.30;68.00;;;;;;5035898;28;20029;-77
2022/07/20 07:23:58;;;;;;;28.33;17.98;;;27.40;67.70;;;;;;5036163;28;20025;-76
2022/07/20 07:26:24;;;;;;;22.90;17.30;;;27.30;66.90;;;;;;5034997;28;20025;-76
2022/07/20 07:28:50;;;;;;;23.98;17.75;;;27.30;67.10;;;;;;5036007;28;20034;-75
2022/07/20 07:31:17;;;;;;;24.15;16.50;;;27.30;67.30;;;;;;5034953;28;20021;-74
2022/07/20 07:33:43;;;;;;;25.45;16.83;;;27.30;67.40;;;;;;5035491;28;20033;-75
2022/07/20 07:36:09;;;;;;;21.67;15.45;;;27.40;67.50;;;;;;5035808;28;20024;-76
2022/07/20 07:38:34;;;;;;;24.20;15.70;;;27.50;67.20;;;;;;5035838;28;20030;-75
2022/07/20 07:41:00;;;;;;;21.08;14.75;;;27.50;67.20;;;;;;5035562;28;20017;-75
2022/07/20 07:43:26;;;;;;;25.02;14.02;;;27.60;66.80;;;;;;5035204;28;20049;-75
2022/07/20 07:45:51;;;;;;;23.95;14.45;;;27.70;66.70;;;;;;5034083;28;20021;-75
2022/07/20 07:48:17;;;;;;;24.10;14.27;;;27.80;66.20;;;;;;5035234;28;20096;-76
2022/07/20 07:50:44;;;;;;;22.90;13.70;;;27.70;65.90;;;;;;5035264;28;20029;-75
2022/07/20 07:53:11;;;;;;;22.33;15.05;;;27.60;65.90;;;;;;5035267;28;20022;-75
2022/07/20 07:55:38;;;;;;;22.98;13.65;;;27.60;65.60;;;;;;5034879;28;20029;-75
2022/07/20 07:58:05;;;;;;;19.48;12.43;;;27.70;65.20;;;;;;5035066;28;20060;-76
2022/07/20 08:00:31;;;;;;;21.20;12.48;;;27.70;65.10;;;;;;5034467;28;20441;-77
2022/07/20 08:02:57;;;;;;;22.50;12.85;;;27.90;65.50;;;;;;5034560;28;20408;-77
2022/07/20 08:05:22;;;;;;;18.65;11.40;;;28.00;65.40;;;;;;5034327;28;20079;-76
2022/07/20 08:07:48;;;;;;;20.33;11.70;;;28.10;65.50;;;;;;5033708;28;20079;-77
2022/07/20 08:10:14;;;;;;;17.58;11.70;;;28.20;65.90;;;;;;5034265;28;20441;-77
2022/07/20 08:12:40;;;;;;;21.80;11.40;;;28.20;64.50;;;;;;5035378;28;20018;-77
2022/07/20 08:15:06;;;;;;;23.48;11.50;;;28.20;63.90;;;;;;5035172;28;20451;-77
2022/07/20 08:17:32;;;;;;;21.02;10.65;;;28.20;64.10;;;;;;5034408;28;20038;-75
2022/07/20 08:19:58;;;;;;;19.73;10.80;;;28.20;63.70;;;;;;5033839;28;20044;-76
2022/07/20 08:22:23;;;;;;;19.42;10.50;;;28.20;61.80;;;;;;5034207;28;20029;-76
2022/07/20 08:24:49;;;;;;;17.17;10.23;;;28.30;61.90;;;;;;5034009;28;20461;-76
2022/07/20 08:27:15;;;;;;;21.25;10.07;;;28.40;61.70;;;;;;5033232;28;20041;-76
2022/07/20 08:29:41;;;;;;;19.00;10.40;;;28.40;61.80;;;;;;5033329;28;20033;-76
2022/07/20 08:32:09;;;;;;;16.90;9.90;;;28.50;60.70;;;;;;5032990;28;20503;-76
2022/07/20 08:34:36;;;;;;;19.73;10.55;;;28.40;59.80;;;;;;5033278;28;20450;-77
2022/07/20 08:37:02;;;;;;;16.02;9.98;;;28.30;59.70;;;;;;5034198;28;20065;-78
2022/07/20 08:39:27;;;;;;;18.00;10.10;;;28.30;60.50;;;;;;5040506;28;20108;-77
2022/07/20 08:41:53;;;;;;;20.75;9.98;;;28.30;60.80;;;;;;5038753;28;20109;-77
2022/07/20 08:44:18;;;;;;;16.85;9.50;;;28.40;60.60;;;;;;5033916;28;20049;-79
2022/07/20 08:46:45;;;;;;;15.55;9.68;;;28.40;60.40;;;;;;5032993;28;20040;-79
2022/07/20 08:49:13;;;;;;;21.08;10.27;;;28.50;60.60;;;;;;5032110;28;20075;-80
2022/07/20 08:51:39;;;;;;;14.35;8.98;;;28.50;60.70;;;;;;5030405;28;20040;-80
2022/07/20 08:54:05;;;;;;;18.00;9.43;;;28.40;61.20;;;;;;5033343;28;20021;-80
2022/07/20 08:56:31;;;;;;;15.07;9.35;;;28.50;61.40;;;;;;5033870;28;20075;-76
2022/07/20 08:58:57;;;;;;;18.73;9.52;;;28.60;62.30;;;;;;5033115;28;20029;-80
2022/07/20 09:01:22;;;;;;;17.80;10.18;;;28.80;61.60;;;;;;5033788;28;20024;-80
2022/07/20 09:04:07;;;;;;;15.85;8.77;;;29.00;61.50;;;;;;5033641;28;20026;-80
2022/07/20 09:06:34;;;;;;;18.25;9.25;;;29.10;60.90;;;;;;5033584;28;20026;-80
2022/07/20 09:09:05;;;;;;;11.48;7.93;;;29.30;60.80;;;;;;5033411;28;20040;-75
2022/07/20 09:11:33;;;;;;;14.50;8.10;;;29.40;60.70;;;;;;5034217;28;20104;-75
2022/07/20 09:13:59;;;;;;;16.70;8.02;;;29.40;59.90;;;;;;5033513;28;20053;-77
2022/07/20 09:16:40;;;;;;;14.45;7.97;;;29.50;60.20;;;;;;5033631;28;20029;-78
2022/07/20 09:19:06;;;;;;;13.70;8.07;;;29.60;59.30;;;;;;5033231;28;20076;-79
2022/07/20 09:21:32;;;;;;;14.55;7.40;;;29.60;59.50;;;;;;5033390;28;20022;-79
2022/07/20 09:24:05;;;;;;;12.45;7.18;;;29.70;59.60;;;;;;5032635;28;20025;-79
2022/07/20 09:26:32;;;;;;;14.35;7.80;;;29.80;59.60;;;;;;5032472;28;20040;-81
2022/07/20 09:28:59;;;;;;;16.33;7.63;;;29.90;59.50;;;;;;5030256;28;20021;-78
2022/07/20 09:31:31;;;;;;;14.57;7.20;;;29.80;59.30;;;;;;5033382;28;20049;-78
2022/07/20 09:33:59;;;;;;;11.63;7.18;;;29.90;59.70;;;;;;5032594;28;20108;-77
2022/07/20 09:36:28;;;;;;;11.05;7.25;;;30.00;58.90;;;;;;5025101;28;20354;-77
2022/07/20 09:38:54;;;;;;;13.13;7.00;;;30.10;58.40;;;;;;5030791;28;20064;-77
2022/07/20 09:41:28;;;;;;;14.32;6.90;;;30.20;57.70;;;;;;5032701;28;20461;-77
2022/07/20 09:43:55;;;;;;;14.50;6.53;;;30.40;57.50;;;;;;5043648;28;20045;-77
2022/07/20 09:46:22;;;;;;;11.75;6.82;;;30.40;57.10;;;;;;5031660;28;20033;-76
2022/07/20 09:48:54;;;;;;;16.30;6.18;;;30.50;57.30;;;;;;5032153;28;20060;-76
2022/07/20 09:51:40;;;;;;;10.98;6.65;;;30.60;56.70;;;;;;5031513;28;20029;-77
2022/07/20 09:54:07;;;;;;;13.90;6.93;;;30.60;56.60;;;;;;5031710;28;20091;-77
2022/07/20 09:56:39;;;;;;;7.35;5.68;;;30.50;56.20;;;;;;5031163;28;20036;-76
2022/07/20 09:59:06;;;;;;;;;;;30.50;56.40;;;;;;5031309;28;20051;-77
2022/07/20 10:01:36;;;;;;;13.02;6.38;;;30.50;56.30;;;;;;5030746;28;19917;-77
2022/07/20 10:04:04;;;;;;;13.98;6.88;;;30.40;56.00;;;;;;5029010;28;20591;-77
2022/07/20 10:06:30;;;;;;;11.55;6.35;;;30.40;56.00;;;;;;5030312;28;20119;-77
2022/07/20 10:08:56;;;;;;;10.10;6.40;;;30.30;56.10;;;;;;5030091;28;20425;-77
2022/07/20 10:11:24;;;;;;;11.68;6.18;;;30.30;56.20;;;;;;5030561;28;20053;-76
2022/07/20 10:13:51;;;;;;;9.52;5.63;;;30.40;55.80;;;;;;5030645;28;20029;-78
2022/07/20 10:16:38;;;;;;;9.70;5.25;;;30.50;55.90;;;;;;5030600;28;20083;-78
2022/07/20 10:19:05;;;;;;;10.02;5.47;;;30.60;55.40;;;;;;5031501;28;20041;-77
2022/07/20 10:21:35;;;;;;;8.57;5.47;;;30.60;55.10;;;;;;5031223;28;20025;-77
2022/07/20 10:24:22;;;;;;;8.55;5.57;;;30.80;55.30;;;;;;5031076;28;20478;-78
2022/07/20 10:27:15;;;;;;;8.98;5.82;;;30.90;54.60;;;;;;5031320;28;20400;-78
2022/07/20 10:29:49;;;;;;;10.05;5.88;;;31.20;54.40;;;;;;5030292;28;20103;-80
2022/07/20 10:32:23;;;;;;;8.68;5.50;;;31.20;54.40;;;;;;5031144;28;20032;-78
2022/07/20 10:34:54;;;;;;;10.93;5.88;;;31.30;55.20;;;;;;5030337;28;20477;-76
2022/07/20 10:37:42;;;;;;;9.80;6.80;;;31.40;54.70;;;;;;5031292;28;20052;-77
2022/07/20 10:40:10;;;;;;;15.32;7.55;;;31.40;54.50;;;;;;5031634;28;20116;-77
2022/07/20 10:42:41;;;;;;;12.63;6.00;;;31.30;55.30;;;;;;5030791;28;20025;-76
2022/07/20 10:45:23;;;;;;;11.03;6.57;;;31.30;55.30;;;;;;5033506;28;20115;-77
2022/07/20 10:47:50;;;;;;;12.48;6.30;;;31.30;55.40;;;;;;5039436;28;20025;-77
2022/07/20 10:50:29;;;;;;;12.38;6.65;;;31.30;55.40;;;;;;5031426;28;20033;-77
2022/07/20 10:53:16;;;;;;;13.55;7.05;;;31.20;55.30;;;;;;5030990;28;20021;-77
2022/07/20 10:55:41;;;;;;;11.80;6.32;;;31.20;55.40;;;;;;5031567;28;20037;-77
2022/07/20 10:58:08;;;;;;;10.43;6.28;;;31.10;56.20;;;;;;5030846;28;20033;-76
2022/07/20 11:00:59;;;;;;;10.93;5.82;;;31.20;55.10;;;;;;5031242;28;20037;-76
2022/07/20 11:03:29;;;;;;;13.13;6.70;;;31.20;55.50;;;;;;5033179;28;20064;-77
2022/07/20 11:06:18;;;;;;;12.27;6.78;;;31.20;55.50;;;;;;5033056;28;20100;-76
2022/07/20 11:08:58;;;;;;;9.13;6.07;;;31.20;55.40;;;;;;5035066;28;20033;-76
2022/07/20 11:11:30;;;;;;;8.00;5.53;;;31.30;55.30;;;;;;5034610;28;20025;-76
2022/07/20 11:13:58;;;;;;;13.88;4.97;;;31.30;54.80;;;;;;5034691;28;20033;-76
2022/07/20 11:16:26;;;;;;;7.22;4.93;;;31.30;54.20;;;;;;5034181;28;20540;-75
2022/07/20 11:18:54;;;;;;;9.30;4.90;;;31.30;54.30;;;;;;5034618;28;20049;-76
2022/07/20 11:21:32;;;;;;;8.23;5.00;;;31.20;54.30;;;;;;5034312;28;20468;-77
2022/07/20 11:24:00;;;;;;;6.53;4.93;;;31.10;54.10;;;;;;5034537;28;20037;-78
2022/07/20 11:26:25;;;;;;;6.38;4.45;;;31.00;54.20;;;;;;5034602;28;20024;-78
2022/07/20 11:28:54;;;;;;;6.63;4.60;;;31.00;54.20;;;;;;5035176;28;20021;-77
2022/07/20 11:31:25;;;;;;;6.82;4.85;;;31.10;54.00;;;;;;5034301;28;20021;-78
2022/07/20 11:33:53;;;;;;;6.78;4.90;;;31.20;53.50;;;;;;5034228;28;20025;-78
2022/07/20 11:36:27;;;;;;;7.35;4.35;;;31.30;53.40;;;;;;5034466;28;20029;-79
2022/07/20 11:39:01;;;;;;;7.45;4.43;;;31.40;53.30;;;;;;5033733;28;20056;-77
2022/07/20 11:41:30;;;;;;;9.20;4.63;;;31.60;53.40;;;;;;5034545;28;20030;-76
2022/07/20 11:43:55;;;;;;;11.75;4.63;;;31.70;52.80;;;;;;5033896;28;20041;-78
2022/07/20 11:46:25;;;;;;;6.20;4.20;;;31.90;52.90;;;;;;5034390;28;20471;-78
2022/07/20 11:49:02;;;;;;;7.20;4.60;;;32.00;52.70;;;;;;5030949;28;20068;-77
2022/07/20 11:51:30;;;;;;;6.43;4.10;;;32.20;52.40;;;;;;5031751;28;20120;-78
2022/07/20 11:53:56;;;;;;;6.88;4.10;;;32.20;52.00;;;;;;5032532;28;20037;-78
2022/07/20 11:56:28;;;;;;;6.40;3.95;;;32.10;51.50;;;;;;5032903;28;20339;-79
2022/07/20 11:58:57;;;;;;;9.93;4.45;;;31.90;51.60;;;;;;5033763;28;20033;-80
2022/07/20 12:01:29;;;;;;;7.90;4.13;;;31.90;51.40;;;;;;5033340;28;20491;-79
2022/07/20 12:04:10;;;;;;;7.20;4.35;;;31.90;51.30;;;;;;5034048;28;20064;-77
2022/07/20 12:06:38;;;;;;;6.55;3.88;;;32.00;51.60;;;;;;5033476;28;20045;-78
2022/07/20 12:09:10;;;;;;;7.82;4.47;;;31.90;51.10;;;;;;5033789;28;20116;-79
2022/07/20 12:11:52;;;;;;;6.88;3.85;;;31.90;51.40;;;;;;5032102;28;20108;-79
2022/07/20 12:14:44;;;;;;;6.70;3.45;;;31.90;51.40;;;;;;5032391;28;20057;-79
2022/07/20 12:17:20;;;;;;;;;;;31.70;51.20;;;;;;5029967;28;20048;-79
2022/07/20 12:19:49;;;;;;;6.22;3.80;;;31.60;51.50;;;;;;5032231;28;19909;-75
2022/07/20 12:22:16;;;;;;;5.05;3.47;;;31.70;51.50;;;;;;5033318;28;20116;-76
2022/07/20 12:24:53;;;;;;;6.57;4.18;;;31.70;51.10;;;;;;5033182;28;20084;-76
2022/07/20 12:27:20;;;;;;;7.07;4.25;;;31.80;51.20;;;;;;5028518;28;20029;-78
2022/07/20 12:29:46;;;;;;;7.45;4.05;;;31.90;50.90;;;;;;5043275;28;20032;-78
2022/07/20 12:32:11;;;;;;;6.20;3.72;;;32.10;50.70;;;;;;5054687;28;20427;-78
2022/07/20 12:34:52;;;;;;;6.90;3.70;;;32.20;50.30;;;;;;5039182;28;20040;-78
2022/07/20 12:37:20;;;;;;;8.03;3.23;;;32.30;50.90;;;;;;5034174;28;20076;-77
2022/07/20 12:39:49;;;;;;;5.50;3.55;;;32.40;50.40;;;;;;5034363;28;20076;-78
2022/07/20 12:42:23;;;;;;;8.60;3.60;;;32.40;50.60;;;;;;5034773;28;20471;-78
2022/07/20 12:44:57;;;;;;;7.43;4.22;;;32.50;50.30;;;;;;5034042;28;20496;-77